sensor_id;sensor_type;location;lat;lon;timestamp;pressure;altitude;pressure_sealevel;temperature;humidity
25560;BME280;13450;49.374;8.584;2022-11-06T00:00:13;100997.00;;;4.75;100.00
25560;BME280;13450;49.374;8.584;2022-11-06T00:02:41;100997.97;;;4.74;100.00
25560;BME280;13450;49.374;8.584;2022-11-06T00:05:07;101004.38;;;4.71;100.00
25560;BME280;13450;49.374;8.584;2022-11-06T00:07:52;100998.22;;;4.71;100.00
25560;BME280;13450;49.374;8.584;2022-11-06T00:10:17;100994.84;;;4.69;100.00
25560;BME280;13450;49.374;8.584;2022-11-06T00:12:43;100993.47;;;4.65;100.00
25560;BME280;13450;49.374;8.584;2022-11-06T00:15:09;101000.44;;;4.66;100.00
25560;BME280;13450;49.374;8.584;2022-11-06T00:17:35;101006.56;;;4.66;100.00
25560;BME280;13450;49.374;8.584;2022-11-06T00:20:00;101003.22;;;4.64;100.00
25560;BME280;13450;49.374;8.584;2022-11-06T00:22:26;101004.06;;;4.65;100.00
25560;BME280;13450;49.374;8.584;2022-11-06T00:24:52;101002.38;;;4.64;100.00
25560;BME280;13450;49.374;8.584;2022-11-06T00:27:17;101001.69;;;4.62;100.00
25560;BME280;13450;49.374;8.584;2022-11-06T00:29:42;101000.13;;;4.59;100.00
25560;BME280;13450;49.374;8.584;2022-11-06T00:32:08;101000.13;;;4.59;100.00
25560;BME280;13450;49.374;8.584;2022-11-06T00:34:38;100995.81;;;4.58;100.00
25560;BME280;13450;49.374;8.584;2022-11-06T00:37:04;100992.31;;;4.57;100.00
25560;BME280;13450;49.374;8.584;2022-11-06T00:39:29;100994.25;;;4.55;100.00
25560;BME280;13450;49.374;8.584;2022-11-06T00:41:55;100997.88;;;4.54;100.00
25560;BME280;13450;49.374;8.584;2022-11-06T00:44:20;100998.41;;;4.48;100.00
25560;BME280;13450;49.374;8.584;2022-11-06T00:46:45;100989.03;;;4.44;100.00
25560;BME280;13450;49.374;8.584;2022-11-06T00:49:11;100986.63;;;4.41;100.00
25560;BME280;13450;49.374;8.584;2022-11-06T00:51:36;100991.13;;;4.40;100.00
25560;BME280;13450;49.374;8.584;2022-11-06T00:54:11;100984.41;;;4.36;100.00
25560;BME280;13450;49.374;8.584;2022-11-06T00:56:39;100981.03;;;4.34;100.00
25560;BME280;13450;49.374;8.584;2022-11-06T00:59:06;100985.75;;;4.30;100.00
25560;BME280;13450;49.374;8.584;2022-11-06T01:01:38;100983.09;;;4.30;100.00
25560;BME280;13450;49.374;8.584;2022-11-06T01:04:06;100970.09;;;4.27;100.00
25560;BME280;13450;49.374;8.584;2022-11-06T01:06:38;100979.03;;;4.26;100.00
25560;BME280;13450;49.374;8.584;2022-11-06T01:09:05;100984.31;;;4.26;100.00
25560;BME280;13450;49.374;8.584;2022-11-06T01:11:33;100989.63;;;4.26;100.00
25560;BME280;13450;49.374;8.584;2022-11-06T01:13:59;100988.78;;;4.26;100.00
25560;BME280;13450;49.374;8.584;2022-11-06T01:16:26;100977.34;;;4.25;100.00
25560;BME280;13450;49.374;8.584;2022-11-06T01:18:53;100973.84;;;4.25;100.00
25560;BME280;13450;49.374;8.584;2022-11-06T01:21:21;100976.38;;;4.26;100.00
25560;BME280;13450;49.374;8.584;2022-11-06T01:23:54;100985.31;;;4.25;100.00
25560;BME280;13450;49.374;8.584;2022-11-06T01:26:20;100982.91;;;4.22;100.00
25560;BME280;13450;49.374;8.584;2022-11-06T01:28:46;100982.06;;;4.22;100.00
25560;BME280;13450;49.374;8.584;2022-11-06T01:31:14;100978.00;;;4.17;100.00
25560;BME280;13450;49.374;8.584;2022-11-06T01:33:39;100974.63;;;4.15;100.00
25560;BME280;13450;49.374;8.584;2022-11-06T01:36:08;100973.09;;;4.13;100.00
25560;BME280;13450;49.374;8.584;2022-11-06T01:38:33;100969.75;;;4.11;100.00
25560;BME280;13450;49.374;8.584;2022-11-06T01:40:59;100969.75;;;4.11;100.00
25560;BME280;13450;49.374;8.584;2022-11-06T01:43:45;100962.63;;;4.11;100.00
25560;BME280;13450;49.374;8.584;2022-11-06T01:46:10;100956.50;;;4.11;100.00
25560;BME280;13450;49.374;8.584;2022-11-06T01:48:40;100964.44;;;4.11;100.00
25560;BME280;13450;49.374;8.584;2022-11-06T01:51:10;100955.78;;;4.09;100.00
25560;BME280;13450;49.374;8.584;2022-11-06T01:53:36;100948.81;;;4.08;100.00
25560;BME280;13450;49.374;8.584;2022-11-06T01:56:04;100937.63;;;4.04;100.00
25560;BME280;13450;49.374;8.584;2022-11-06T01:58:32;100935.13;;;4.02;100.00
25560;BME280;13450;49.374;8.584;2022-11-06T02:00:59;100924.78;;;3.99;100.00
25560;BME280;13450;49.374;8.584;2022-11-06T02:03:24;100912.50;;;3.98;100.00
25560;BME280;13450;49.374;8.584;2022-11-06T02:05:52;100912.63;;;3.97;100.00
25560;BME280;13450;49.374;8.584;2022-11-06T02:08:19;100907.19;;;3.98;100.00
25560;BME280;13450;49.374;8.584;2022-11-06T02:10:46;100900.25;;;3.97;100.00
25560;BME280;13450;49.374;8.584;2022-11-06T02:13:36;100901.19;;;3.96;100.00
25560;BME280;13450;49.374;8.584;2022-11-06T02:29:13;100891.31;;;3.98;100.00
25560;BME280;13450;49.374;8.584;2022-11-06T02:31:41;100892.28;;;3.97;100.00
25560;BME280;13450;49.374;8.584;2022-11-06T02:34:13;100885.16;;;3.98;100.00
25560;BME280;13450;49.374;8.584;2022-11-06T02:36:54;100884.47;;;3.96;100.00
25560;BME280;13450;49.374;8.584;2022-11-06T02:39:23;100880.97;;;3.95;100.00
25560;BME280;13450;49.374;8.584;2022-11-06T02:41:52;100877.47;;;3.95;100.00
25560;BME280;13450;49.374;8.584;2022-11-06T02:44:21;100870.63;;;3.92;100.00
25560;BME280;13450;49.374;8.584;2022-11-06T02:46:51;100867.03;;;3.93;100.00
25560;BME280;13450;49.374;8.584;2022-11-06T02:49:29;100869.81;;;3.91;100.00
25560;BME280;13450;49.374;8.584;2022-11-06T02:52:02;100860.19;;;3.90;100.00
25560;BME280;13450;49.374;8.584;2022-11-06T02:54:31;100868.97;;;3.91;100.00
25560;BME280;13450;49.374;8.584;2022-11-06T02:57:05;100867.28;;;3.90;100.00
25560;BME280;13450;49.374;8.584;2022-11-06T02:59:51;100876.22;;;3.89;100.00
25560;BME280;13450;49.374;8.584;2022-11-06T03:02:25;100879.81;;;3.88;100.00
25560;BME280;13450;49.374;8.584;2022-11-06T03:05:05;100875.47;;;3.87;100.00
25560;BME280;13450;49.374;8.584;2022-11-06T03:07:43;100887.06;;;3.86;100.00
25560;BME280;13450;49.374;8.584;2022-11-06T03:10:15;100887.75;;;3.88;100.00
25560;BME280;13450;49.374;8.584;2022-11-06T03:15:38;100888.16;;;3.83;100.00
25560;BME280;13450;49.374;8.584;2022-11-06T03:18:11;100881.31;;;3.81;100.00
25560;BME280;13450;49.374;8.584;2022-11-06T03:20:41;100868.31;;;3.77;100.00
25560;BME280;13450;49.374;8.584;2022-11-06T03:23:17;100869.66;;;3.72;100.00
25560;BME280;13450;49.374;8.584;2022-11-06T03:26:03;100870.78;;;3.69;100.00
25560;BME280;13450;49.374;8.584;2022-11-06T03:28:38;100856.84;;;3.67;100.00
25560;BME280;13450;49.374;8.584;2022-11-06T03:31:08;100872.00;;;3.65;100.00
25560;BME280;13450;49.374;8.584;2022-11-06T03:33:49;100874.94;;;3.62;100.00
25560;BME280;13450;49.374;8.584;2022-11-06T03:36:23;100868.78;;;3.61;100.00
25560;BME280;13450;49.374;8.584;2022-11-06T03:38:54;100873.22;;;3.61;100.00
25560;BME280;13450;49.374;8.584;2022-11-06T03:41:42;100880.47;;;3.59;100.00
25560;BME280;13450;49.374;8.584;2022-11-06T03:44:12;100870.97;;;3.56;100.00
25560;BME280;13450;49.374;8.584;2022-11-06T03:46:43;100868.44;;;3.55;100.00
25560;BME280;13450;49.374;8.584;2022-11-06T03:49:13;100874.84;;;3.52;100.00
25560;BME280;13450;49.374;8.584;2022-11-06T03:51:57;100860.31;;;3.46;100.00
25560;BME280;13450;49.374;8.584;2022-11-06T03:54:30;100848.31;;;3.42;100.00
25560;BME280;13450;49.374;8.584;2022-11-06T03:57:06;100840.63;;;3.39;100.00
25560;BME280;13450;49.374;8.584;2022-11-06T03:59:41;100845.19;;;3.37;100.00
25560;BME280;13450;49.374;8.584;2022-11-06T04:02:11;100843.53;;;3.36;100.00
25560;BME280;13450;49.374;8.584;2022-11-06T04:04:45;100841.97;;;3.33;100.00
25560;BME280;13450;49.374;8.584;2022-11-06T04:07:18;100833.19;;;3.33;100.00
25560;BME280;13450;49.374;8.584;2022-11-06T04:09:46;100831.66;;;3.30;100.00
25560;BME280;13450;49.374;8.584;2022-11-06T04:12:34;100830.09;;;3.27;100.00
25560;BME280;13450;49.374;8.584;2022-11-06T04:15:40;100826.75;;;3.25;100.00
25560;BME280;13450;49.374;8.584;2022-11-06T04:18:12;100824.09;;;3.25;100.00
25560;BME280;13450;49.374;8.584;2022-11-06T04:20:52;100831.31;;;3.23;100.00
25560;BME280;13450;49.374;8.584;2022-11-06T04:26:44;100823.91;;;3.17;100.00
25560;BME280;13450;49.374;8.584;2022-11-06T04:32:07;100816.94;;;3.16;100.00
25560;BME280;13450;49.374;8.584;2022-11-06T04:37:19;100818.41;;;3.09;100.00
25560;BME280;13450;49.374;8.584;2022-11-06T04:40:08;100824.66;;;3.08;100.00
25560;BME280;13450;49.374;8.584;2022-11-06T04:43:03;100831.16;;;3.04;100.00
25560;BME280;13450;49.374;8.584;2022-11-06T04:45:39;100842.00;;;3.00;100.00
25560;BME280;13450;49.374;8.584;2022-11-06T04:48:06;100859.06;;;2.96;100.00
25560;BME280;13450;49.374;8.584;2022-11-06T04:50:37;100855.97;;;2.91;100.00
25560;BME280;13450;49.374;8.584;2022-11-06T04:53:05;100842.53;;;2.83;100.00
25560;BME280;13450;49.374;8.584;2022-11-06T04:55:48;100845.91;;;2.73;100.00
25560;BME280;13450;49.374;8.584;2022-11-06T04:58:14;100841.38;;;2.64;100.00
25560;BME280;13450;49.374;8.584;2022-11-06T05:00:41;100843.66;;;2.57;100.00
25560;BME280;13450;49.374;8.584;2022-11-06T05:03:09;100842.97;;;2.55;100.00
25560;BME280;13450;49.374;8.584;2022-11-06T05:05:34;100843.06;;;2.54;100.00
25560;BME280;13450;49.374;8.584;2022-11-06T05:07:59;100845.72;;;2.54;100.00
25560;BME280;13450;49.374;8.584;2022-11-06T05:10:24;100857.50;;;2.50;100.00
25560;BME280;13450;49.374;8.584;2022-11-06T05:12:50;100857.72;;;2.46;100.00
25560;BME280;13450;49.374;8.584;2022-11-06T05:15:15;100868.28;;;2.46;100.00
25560;BME280;13450;49.374;8.584;2022-11-06T05:17:40;100866.63;;;2.45;100.00
25560;BME280;13450;49.374;8.584;2022-11-06T05:20:08;100866.84;;;2.42;100.00
25560;BME280;13450;49.374;8.584;2022-11-06T05:22:39;100846.44;;;2.33;100.00
25560;BME280;13450;49.374;8.584;2022-11-06T05:25:35;100854.59;;;2.30;100.00
25560;BME280;13450;49.374;8.584;2022-11-06T05:28:02;100846.19;;;2.25;100.00
25560;BME280;13450;49.374;8.584;2022-11-06T05:30:30;100843.56;;;2.25;100.00
25560;BME280;13450;49.374;8.584;2022-11-06T05:32:56;100831.56;;;2.20;100.00
25560;BME280;13450;49.374;8.584;2022-11-06T05:35:21;100824.59;;;2.19;100.00
25560;BME280;13450;49.374;8.584;2022-11-06T05:37:47;100827.47;;;2.16;100.00
25560;BME280;13450;49.374;8.584;2022-11-06T05:40:12;100819.81;;;2.13;100.00
25560;BME280;13450;49.374;8.584;2022-11-06T05:42:39;100832.91;;;2.15;100.00
25560;BME280;13450;49.374;8.584;2022-11-06T05:45:05;100828.69;;;2.12;100.00
25560;BME280;13450;49.374;8.584;2022-11-06T05:47:31;100833.97;;;2.12;100.00
25560;BME280;13450;49.374;8.584;2022-11-06T05:49:56;100832.41;;;2.09;100.00
25560;BME280;13450;49.374;8.584;2022-11-06T05:52:22;100824.63;;;2.08;100.00
25560;BME280;13450;49.374;8.584;2022-11-06T05:54:48;100816.94;;;2.05;100.00
25560;BME280;13450;49.374;8.584;2022-11-06T05:57:13;100797.97;;;2.00;100.00
25560;BME280;13450;49.374;8.584;2022-11-06T05:59:38;100790.06;;;2.00;100.00
25560;BME280;13450;49.374;8.584;2022-11-06T06:02:06;100798.94;;;1.99;100.00
25560;BME280;13450;49.374;8.584;2022-11-06T06:04:32;100807.69;;;1.99;100.00
25560;BME280;13450;49.374;8.584;2022-11-06T06:06:57;100799.06;;;1.97;100.00
25560;BME280;13450;49.374;8.584;2022-11-06T06:09:22;100791.13;;;1.97;100.00
25560;BME280;13450;49.374;8.584;2022-11-06T06:11:52;100789.56;;;1.94;100.00
25560;BME280;13450;49.374;8.584;2022-11-06T06:14:18;100788.72;;;1.94;100.00
25560;BME280;13450;49.374;8.584;2022-11-06T06:16:43;100794.00;;;1.94;100.00
25560;BME280;13450;49.374;8.584;2022-11-06T06:19:09;100789.56;;;1.94;100.00
25560;BME280;13450;49.374;8.584;2022-11-06T06:21:34;100792.06;;;1.96;100.00
25560;BME280;13450;49.374;8.584;2022-11-06T06:24:02;100781.66;;;1.94;100.00
25560;BME280;13450;49.374;8.584;2022-11-06T06:26:27;100773.47;;;1.98;100.00
25560;BME280;13450;49.374;8.584;2022-11-06T06:28:53;100762.91;;;1.98;100.00
25560;BME280;13450;49.374;8.584;2022-11-06T06:31:18;100750.44;;;2.00;100.00
25560;BME280;13450;49.374;8.584;2022-11-06T06:33:43;100748.50;;;2.02;100.00
25560;BME280;13450;49.374;8.584;2022-11-06T06:36:09;100746.34;;;2.07;100.00
25560;BME280;13450;49.374;8.584;2022-11-06T06:38:34;100742.63;;;2.09;100.00
25560;BME280;13450;49.374;8.584;2022-11-06T06:41:01;100739.50;;;2.16;100.00
25560;BME280;13450;49.374;8.584;2022-11-06T06:43:27;100738.75;;;2.25;100.00
25560;BME280;13450;49.374;8.584;2022-11-06T06:45:52;100731.31;;;2.30;100.00
25560;BME280;13450;49.374;8.584;2022-11-06T06:48:18;100726.38;;;2.37;100.00
25560;BME280;13450;49.374;8.584;2022-11-06T06:50:43;100723.94;;;2.45;100.00
25560;BME280;13450;49.374;8.584;2022-11-06T06:53:10;100730.28;;;2.54;100.00
25560;BME280;13450;49.374;8.584;2022-11-06T06:55:37;100724.38;;;2.62;100.00
25560;BME280;13450;49.374;8.584;2022-11-06T06:58:03;100716.78;;;2.69;100.00
25560;BME280;13450;49.374;8.584;2022-11-06T07:00:28;100703.91;;;2.76;100.00
25560;BME280;13450;49.374;8.584;2022-11-06T07:02:54;100705.19;;;2.81;100.00
25560;BME280;13450;49.374;8.584;2022-11-06T07:05:19;100698.44;;;2.88;100.00
25560;BME280;13450;49.374;8.584;2022-11-06T07:07:47;100696.94;;;2.96;100.00
25560;BME280;13450;49.374;8.584;2022-11-06T07:10:12;100689.34;;;3.03;100.00
25560;BME280;13450;49.374;8.584;2022-11-06T07:12:37;100691.34;;;3.10;100.00
25560;BME280;13450;49.374;8.584;2022-11-06T07:15:03;100691.66;;;3.17;100.00
25560;BME280;13450;49.374;8.584;2022-11-06T07:17:28;100691.84;;;3.25;100.00
25560;BME280;13450;49.374;8.584;2022-11-06T07:19:54;100694.66;;;3.34;100.00
25560;BME280;13450;49.374;8.584;2022-11-06T07:22:19;100694.97;;;3.40;100.00
25560;BME280;13450;49.374;8.584;2022-11-06T07:24:44;100689.28;;;3.45;100.00
25560;BME280;13450;49.374;8.584;2022-11-06T07:27:10;100679.13;;;3.50;100.00
25560;BME280;13450;49.374;8.584;2022-11-06T07:29:35;100668.03;;;3.57;100.00
25560;BME280;13450;49.374;8.584;2022-11-06T07:32:00;100654.25;;;3.63;100.00
25560;BME280;13450;49.374;8.584;2022-11-06T07:34:26;100660.97;;;3.67;100.00
25560;BME280;13450;49.374;8.584;2022-11-06T07:36:51;100662.38;;;3.71;100.00
25560;BME280;13450;49.374;8.584;2022-11-06T07:39:16;100669.88;;;3.76;100.00
25560;BME280;13450;49.374;8.584;2022-11-06T07:41:41;100671.16;;;3.82;100.00
25560;BME280;13450;49.374;8.584;2022-11-06T07:44:07;100669.06;;;3.85;100.00
25560;BME280;13450;49.374;8.584;2022-11-06T07:46:34;100666.28;;;3.87;100.00
25560;BME280;13450;49.374;8.584;2022-11-06T07:49:00;100660.47;;;3.93;100.00
25560;BME280;13450;49.374;8.584;2022-11-06T07:51:25;100664.66;;;3.96;100.00
25560;BME280;13450;49.374;8.584;2022-11-06T07:53:51;100666.88;;;4.00;100.00
25560;BME280;13450;49.374;8.584;2022-11-06T07:56:16;100676.94;;;4.07;100.00
25560;BME280;13450;49.374;8.584;2022-11-06T07:58:41;100673.75;;;4.13;100.00
25560;BME280;13450;49.374;8.584;2022-11-06T08:01:13;100677.53;;;4.20;100.00
25560;BME280;13450;49.374;8.584;2022-11-06T08:03:41;100688.56;;;4.25;100.00
25560;BME280;13450;49.374;8.584;2022-11-06T08:06:10;100691.63;;;4.30;100.00
25560;BME280;13450;49.374;8.584;2022-11-06T08:08:36;100697.78;;;4.31;100.00
25560;BME280;13450;49.374;8.584;2022-11-06T08:11:04;100693.28;;;4.31;100.00
25560;BME280;13450;49.374;8.584;2022-11-06T08:13:35;100695.41;;;4.38;100.00
25560;BME280;13450;49.374;8.584;2022-11-06T08:16:12;100708.09;;;4.44;100.00
25560;BME280;13450;49.374;8.584;2022-11-06T08:18:38;100724.84;;;4.54;100.00
25560;BME280;13450;49.374;8.584;2022-11-06T08:21:05;100727.63;;;4.63;100.00
25560;BME280;13450;49.374;8.584;2022-11-06T08:23:31;100744.25;;;4.75;100.00
25560;BME280;13450;49.374;8.584;2022-11-06T08:25:59;100759.59;;;4.81;100.00
25560;BME280;13450;49.374;8.584;2022-11-06T08:28:25;100745.38;;;4.92;100.00
25560;BME280;13450;49.374;8.584;2022-11-06T08:30:51;100719.66;;;5.02;100.00
25560;BME280;13450;49.374;8.584;2022-11-06T08:33:17;100716.28;;;5.10;100.00
25560;BME280;13450;49.374;8.584;2022-11-06T08:35:43;100719.34;;;5.15;100.00
25560;BME280;13450;49.374;8.584;2022-11-06T08:38:08;100717.97;;;5.21;100.00
25560;BME280;13450;49.374;8.584;2022-11-06T08:40:36;100708.44;;;5.28;100.00
25560;BME280;13450;49.374;8.584;2022-11-06T08:43:09;100712.91;;;5.38;100.00
25560;BME280;13450;49.374;8.584;2022-11-06T08:45:36;100705.03;;;5.46;100.00
25560;BME280;13450;49.374;8.584;2022-11-06T08:48:03;100714.09;;;5.53;100.00
25560;BME280;13450;49.374;8.584;2022-11-06T08:50:30;100704.25;;;5.63;100.00
25560;BME280;13450;49.374;8.584;2022-11-06T08:52:56;100705.75;;;5.76;100.00
25560;BME280;13450;49.374;8.584;2022-11-06T08:55:22;100709.38;;;5.85;100.00
25560;BME280;13450;49.374;8.584;2022-11-06T08:57:47;100706.50;;;5.96;100.00
25560;BME280;13450;49.374;8.584;2022-11-06T09:00:13;100697.66;;;6.06;100.00
25560;BME280;13450;49.374;8.584;2022-11-06T09:02:39;100677.34;;;6.14;100.00
25560;BME280;13450;49.374;8.584;2022-11-06T09:05:07;100674.44;;;6.26;100.00
25560;BME280;13450;49.374;8.584;2022-11-06T09:07:32;100667.84;;;6.30;100.00
25560;BME280;13450;49.374;8.584;2022-11-06T09:09:58;100657.31;;;6.38;100.00
25560;BME280;13450;49.374;8.584;2022-11-06T09:12:23;100633.97;;;6.50;100.00
25560;BME280;13450;49.374;8.584;2022-11-06T09:14:48;100637.75;;;6.66;100.00
25560;BME280;13450;49.374;8.584;2022-11-06T09:17:14;100640.53;;;6.83;100.00
25560;BME280;13450;49.374;8.584;2022-11-06T09:19:39;100637.13;;;6.99;100.00
25560;BME280;13450;49.374;8.584;2022-11-06T09:22:06;100627.28;;;7.17;100.00
25560;BME280;13450;49.374;8.584;2022-11-06T09:24:31;100628.88;;;7.37;100.00
25560;BME280;13450;49.374;8.584;2022-11-06T09:26:59;100611.50;;;7.59;100.00
25560;BME280;13450;49.374;8.584;2022-11-06T09:29:24;100611.88;;;7.72;100.00
25560;BME280;13450;49.374;8.584;2022-11-06T09:31:50;100603.91;;;7.97;100.00
25560;BME280;13450;49.374;8.584;2022-11-06T09:34:15;100594.47;;;8.20;100.00
25560;BME280;13450;49.374;8.584;2022-11-06T09:36:40;100601.28;;;8.22;100.00
25560;BME280;13450;49.374;8.584;2022-11-06T09:39:08;100582.97;;;8.28;100.00
25560;BME280;13450;49.374;8.584;2022-11-06T09:42:00;100568.31;;;8.32;100.00
25560;BME280;13450;49.374;8.584;2022-11-06T09:46:55;100572.78;;;8.48;100.00
25560;BME280;13450;49.374;8.584;2022-11-06T09:49:37;100564.28;;;8.61;100.00
25560;BME280;13450;49.374;8.584;2022-11-06T09:54:51;100543.81;;;9.10;100.00
25560;BME280;13450;49.374;8.584;2022-11-06T09:59:50;100558.72;;;9.99;100.00
25560;BME280;13450;49.374;8.584;2022-11-06T10:02:26;100561.56;;;10.44;100.00
25560;BME280;13450;49.374;8.584;2022-11-06T10:07:35;100538.97;;;11.07;100.00
25560;BME280;13450;49.374;8.584;2022-11-06T10:10:07;100542.00;;;11.19;100.00
25560;BME280;13450;49.374;8.584;2022-11-06T10:18:48;100526.13;;;12.71;100.00
25560;BME280;13450;49.374;8.584;2022-11-06T10:23:49;100513.41;;;12.86;100.00
25560;BME280;13450;49.374;8.584;2022-11-06T10:26:21;100506.06;;;13.08;100.00
25560;BME280;13450;49.374;8.584;2022-11-06T10:32:29;100478.97;;;13.59;100.00
25560;BME280;13450;49.374;8.584;2022-11-06T10:35:24;100480.00;;;14.05;97.45
25560;BME280;13450;49.374;8.584;2022-11-06T10:38:13;100479.13;;;14.65;90.49
25560;BME280;13450;49.374;8.584;2022-11-06T10:40:42;100473.69;;;15.32;83.63
25560;BME280;13450;49.374;8.584;2022-11-06T10:45:39;100470.28;;;16.52;76.47
25560;BME280;13450;49.374;8.584;2022-11-06T10:48:26;100467.94;;;16.37;74.41
25560;BME280;13450;49.374;8.584;2022-11-06T10:54:24;100467.56;;;16.33;70.46
25560;BME280;13450;49.374;8.584;2022-11-06T10:57:14;100469.47;;;17.07;70.49
25560;BME280;13450;49.374;8.584;2022-11-06T10:59:47;100471.84;;;17.46;67.30
25560;BME280;13450;49.374;8.584;2022-11-06T11:04:54;100460.09;;;18.19;64.24
25560;BME280;13450;49.374;8.584;2022-11-06T11:07:22;100454.00;;;18.12;59.56
25560;BME280;13450;49.374;8.584;2022-11-06T11:09:48;100450.06;;;18.43;63.84
25560;BME280;13450;49.374;8.584;2022-11-06T11:12:24;100436.44;;;19.50;58.57
25560;BME280;13450;49.374;8.584;2022-11-06T11:17:35;100434.50;;;20.58;52.60
25560;BME280;13450;49.374;8.584;2022-11-06T11:20:01;100425.41;;;20.92;51.66
25560;BME280;13450;49.374;8.584;2022-11-06T11:22:28;100415.91;;;21.82;46.65
25560;BME280;13450;49.374;8.584;2022-11-06T11:27:30;100412.06;;;22.85;42.37
25560;BME280;13450;49.374;8.584;2022-11-06T11:29:57;100412.53;;;22.62;41.79
25560;BME280;13450;49.374;8.584;2022-11-06T11:32:22;100408.19;;;22.66;45.80
25560;BME280;13450;49.374;8.584;2022-11-06T11:34:51;100407.50;;;23.28;40.33
25560;BME280;13450;49.374;8.584;2022-11-06T11:37:29;100397.41;;;23.85;41.50
25560;BME280;13450;49.374;8.584;2022-11-06T11:40:34;100379.16;;;23.44;40.22
25560;BME280;13450;49.374;8.584;2022-11-06T11:45:43;100360.03;;;24.52;36.58
25560;BME280;13450;49.374;8.584;2022-11-06T11:48:12;100336.88;;;24.89;37.21
25560;BME280;13450;49.374;8.584;2022-11-06T11:50:38;100352.38;;;24.54;40.71
25560;BME280;13450;49.374;8.584;2022-11-06T11:53:10;100338.47;;;24.45;37.82
25560;BME280;13450;49.374;8.584;2022-11-06T11:55:42;100332.25;;;24.34;41.10
25560;BME280;13450;49.374;8.584;2022-11-06T11:58:20;100331.91;;;23.28;39.04
25560;BME280;13450;49.374;8.584;2022-11-06T12:00:52;100337.28;;;21.53;44.12
25560;BME280;13450;49.374;8.584;2022-11-06T12:03:20;100335.00;;;19.90;44.32
25560;BME280;13450;49.374;8.584;2022-11-06T12:05:46;100320.38;;;19.57;48.41
25560;BME280;13450;49.374;8.584;2022-11-06T12:08:20;100318.97;;;19.71;46.37
25560;BME280;13450;49.374;8.584;2022-11-06T12:10:49;100309.72;;;19.67;49.64
25560;BME280;13450;49.374;8.584;2022-11-06T12:13:23;100313.50;;;18.68;49.45
25560;BME280;13450;49.374;8.584;2022-11-06T12:16:06;100307.91;;;17.33;53.57
25560;BME280;13450;49.374;8.584;2022-11-06T12:21:10;100287.16;;;15.48;63.84
25560;BME280;13450;49.374;8.584;2022-11-06T12:23:54;100277.53;;;14.76;72.12
25560;BME280;13450;49.374;8.584;2022-11-06T12:29:10;100275.44;;;13.66;85.57
25560;BME280;13450;49.374;8.584;2022-11-06T12:31:41;100279.38;;;13.30;93.42
25560;BME280;13450;49.374;8.584;2022-11-06T12:34:13;100274.00;;;12.89;97.38
25560;BME280;13450;49.374;8.584;2022-11-06T12:36:56;100276.63;;;12.62;100.00
25560;BME280;13450;49.374;8.584;2022-11-06T12:39:28;100267.53;;;12.57;100.00
25560;BME280;13450;49.374;8.584;2022-11-06T12:41:56;100264.59;;;12.45;100.00
25560;BME280;13450;49.374;8.584;2022-11-06T12:44:22;100260.03;;;12.38;100.00
25560;BME280;13450;49.374;8.584;2022-11-06T12:55:28;100231.22;;;12.94;100.00
25560;BME280;13450;49.374;8.584;2022-11-06T12:58:09;100222.94;;;12.62;100.00
25560;BME280;13450;49.374;8.584;2022-11-06T13:03:42;100209.78;;;12.05;100.00
25560;BME280;13450;49.374;8.584;2022-11-06T13:09:30;100217.13;;;11.54;100.00
25560;BME280;13450;49.374;8.584;2022-11-06T13:14:51;100205.63;;;11.25;100.00
25560;BME280;13450;49.374;8.584;2022-11-06T13:17:45;100198.75;;;11.16;100.00
25560;BME280;13450;49.374;8.584;2022-11-06T13:23:05;100195.56;;;11.05;100.00
25560;BME280;13450;49.374;8.584;2022-11-06T13:25:40;100191.66;;;11.01;100.00
25560;BME280;13450;49.374;8.584;2022-11-06T13:28:22;100204.38;;;10.99;100.00
25560;BME280;13450;49.374;8.584;2022-11-06T13:30:51;100192.16;;;10.90;100.00
25560;BME280;13450;49.374;8.584;2022-11-06T13:33:23;100202.63;;;10.84;100.00
25560;BME280;13450;49.374;8.584;2022-11-06T13:35:49;100192.94;;;10.83;100.00
25560;BME280;13450;49.374;8.584;2022-11-06T13:40:48;100175.38;;;10.74;100.00
25560;BME280;13450;49.374;8.584;2022-11-06T13:43:20;100167.91;;;10.69;100.00
25560;BME280;13450;49.374;8.584;2022-11-06T13:48:29;100166.19;;;10.62;100.00
25560;BME280;13450;49.374;8.584;2022-11-06T13:53:52;100163.22;;;10.50;100.00
25560;BME280;13450;49.374;8.584;2022-11-06T13:56:42;100153.72;;;10.47;100.00
25560;BME280;13450;49.374;8.584;2022-11-06T14:04:43;100151.13;;;10.39;100.00
25560;BME280;13450;49.374;8.584;2022-11-06T14:07:15;100154.84;;;10.38;100.00
25560;BME280;13450;49.374;8.584;2022-11-06T14:09:43;100148.84;;;10.36;100.00
25560;BME280;13450;49.374;8.584;2022-11-06T14:12:15;100147.19;;;10.34;100.00
25560;BME280;13450;49.374;8.584;2022-11-06T14:14:41;100139.53;;;10.31;100.00
25560;BME280;13450;49.374;8.584;2022-11-06T14:22:45;100132.53;;;10.30;100.00
25560;BME280;13450;49.374;8.584;2022-11-06T14:32:54;100144.41;;;10.65;100.00
25560;BME280;13450;49.374;8.584;2022-11-06T14:40:53;100135.16;;;10.96;100.00
25560;BME280;13450;49.374;8.584;2022-11-06T14:43:23;100128.53;;;10.92;100.00
25560;BME280;13450;49.374;8.584;2022-11-06T14:48:27;100123.72;;;10.80;100.00
25560;BME280;13450;49.374;8.584;2022-11-06T14:50:54;100119.78;;;10.76;100.00
25560;BME280;13450;49.374;8.584;2022-11-06T14:53:24;100125.47;;;10.66;100.00
25560;BME280;13450;49.374;8.584;2022-11-06T14:56:03;100124.59;;;10.59;100.00
25560;BME280;13450;49.374;8.584;2022-11-06T14:58:33;100127.41;;;10.51;100.00
25560;BME280;13450;49.374;8.584;2022-11-06T15:03:44;100117.78;;;10.34;100.00
25560;BME280;13450;49.374;8.584;2022-11-06T15:16:59;100114.94;;;9.99;100.00
25560;BME280;13450;49.374;8.584;2022-11-06T15:19:29;100114.09;;;9.99;100.00